sensor_id;sensor_type;location;lat;lon;timestamp;pressure;altitude;pressure_sealevel;temperature;humidity
13734;BME280;43298;52.560;13.508;2023-01-26T00:01:17;101749.00;;;0.10;100.00
13734;BME280;43298;52.560;13.508;2023-01-26T00:03:44;101736.19;;;0.05;100.00
13734;BME280;43298;52.560;13.508;2023-01-26T00:06:12;101740.44;;;0.06;100.00
13734;BME280;43298;52.560;13.508;2023-01-26T00:08:41;101735.28;;;0.01;100.00
13734;BME280;43298;52.560;13.508;2023-01-26T00:11:10;101736.19;;;0.05;100.00
13734;BME280;43298;52.560;13.508;2023-01-26T00:13:37;101737.91;;;0.06;100.00
13734;BME280;43298;52.560;13.508;2023-01-26T00:16:04;101732.81;;;0.06;100.00
13734;BME280;43298;52.560;13.508;2023-01-26T00:18:30;101737.91;;;0.06;100.00
13734;BME280;43298;52.560;13.508;2023-01-26T00:21:01;101733.59;;;0.02;100.00
13734;BME280;43298;52.560;13.508;2023-01-26T00:23:29;101728.50;;;0.02;100.00
13734;BME280;43298;52.560;13.508;2023-01-26T00:25:55;101720.88;;;0.02;100.00
13734;BME280;43298;52.560;13.508;2023-01-26T00:28:21;101715.81;;;0.03;100.00
13734;BME280;43298;52.560;13.508;2023-01-26T00:30:47;101712.41;;;0.03;100.00
13734;BME280;43298;52.560;13.508;2023-01-26T00:33:14;101706.53;;;0.04;100.00
13734;BME280;43298;52.560;13.508;2023-01-26T00:35:40;101703.19;;;0.08;100.00
13734;BME280;43298;52.560;13.508;2023-01-26T00:38:14;101697.16;;;0.03;100.00
13734;BME280;43298;52.560;13.508;2023-01-26T00:40:39;101699.69;;;0.01;100.00
13734;BME280;43298;52.560;13.508;2023-01-26T00:43:06;101694.59;;;0.01;100.00
13734;BME280;43298;52.560;13.508;2023-01-26T00:45:34;101698.06;;;0.05;100.00
13734;BME280;43298;52.560;13.508;2023-01-26T00:48:00;101698.06;;;0.05;100.00
13734;BME280;43298;52.560;13.508;2023-01-26T00:50:26;101698.16;;;0.10;100.00
13734;BME280;43298;52.560;13.508;2023-01-26T00:52:52;101693.88;;;0.08;100.00
13734;BME280;43298;52.560;13.508;2023-01-26T00:55:18;101695.63;;;0.11;100.00
13734;BME280;43298;52.560;13.508;2023-01-26T00:57:44;101690.53;;;0.11;100.00
13734;BME280;43298;52.560;13.508;2023-01-26T01:00:10;101698.16;;;0.11;100.00
13734;BME280;43298;52.560;13.508;2023-01-26T01:02:42;101692.16;;;0.08;100.00
13734;BME280;43298;52.560;13.508;2023-01-26T01:05:09;101695.56;;;0.08;100.00
13734;BME280;43298;52.560;13.508;2023-01-26T01:07:34;101696.34;;;0.04;100.00
13734;BME280;43298;52.560;13.508;2023-01-26T01:10:00;101698.00;;;0.02;100.00
13734;BME280;43298;52.560;13.508;2023-01-26T01:12:26;101695.50;;;0.03;100.00
13734;BME280;43298;52.560;13.508;2023-01-26T01:14:52;101695.44;;;0.00;100.00
13734;BME280;43298;52.560;13.508;2023-01-26T01:17:18;101687.88;;;0.03;100.00
13734;BME280;43298;52.560;13.508;2023-01-26T01:19:44;101685.28;;;0.02;100.00
13734;BME280;43298;52.560;13.508;2023-01-26T01:22:10;101686.13;;;0.01;100.00
13734;BME280;43298;52.560;13.508;2023-01-26T01:24:35;101680.22;;;0.02;100.00
13734;BME280;43298;52.560;13.508;2023-01-26T01:27:02;101668.38;;;0.03;100.00
13734;BME280;43298;52.560;13.508;2023-01-26T01:29:28;101672.59;;;0.02;100.00
13734;BME280;43298;52.560;13.508;2023-01-26T01:31:54;101673.41;;;-0.01;100.00
13734;BME280;43298;52.560;13.508;2023-01-26T01:34:20;101672.53;;;-0.01;100.00
13734;BME280;43298;52.560;13.508;2023-01-26T01:36:45;101673.38;;;-0.02;100.00
13734;BME280;43298;52.560;13.508;2023-01-26T01:39:11;101675.09;;;0.00;100.00
13734;BME280;43298;52.560;13.508;2023-01-26T01:41:37;101660.66;;;-0.02;100.00
13734;BME280;43298;52.560;13.508;2023-01-26T01:44:22;101668.31;;;-0.01;100.00
13734;BME280;43298;52.560;13.508;2023-01-26T01:47:02;101664.13;;;0.03;100.00
13734;BME280;43298;52.560;13.508;2023-01-26T01:49:35;101670.06;;;0.03;100.00
13734;BME280;43298;52.560;13.508;2023-01-26T01:52:07;101667.50;;;0.02;100.00
13734;BME280;43298;52.560;13.508;2023-01-26T01:54:53;101664.09;;;0.00;100.00
13734;BME280;43298;52.560;13.508;2023-01-26T01:57:32;101654.81;;;0.03;100.00
13734;BME280;43298;52.560;13.508;2023-01-26T02:00:14;101645.50;;;0.04;100.00
13734;BME280;43298;52.560;13.508;2023-01-26T02:02:45;101648.88;;;0.03;100.00
13734;BME280;43298;52.560;13.508;2023-01-26T02:05:34;101649.81;;;0.08;100.00
13734;BME280;43298;52.560;13.508;2023-01-26T02:08:04;101648.06;;;0.04;100.00
13734;BME280;43298;52.560;13.508;2023-01-26T02:10:31;101645.47;;;0.01;100.00
13734;BME280;43298;52.560;13.508;2023-01-26T02:12:57;101640.44;;;0.04;100.00
13734;BME280;43298;52.560;13.508;2023-01-26T02:15:26;101634.50;;;0.05;100.00
13734;BME280;43298;52.560;13.508;2023-01-26T02:17:52;101637.09;;;0.08;100.00
13734;BME280;43298;52.560;13.508;2023-01-26T02:26:35;101620.13;;;0.07;100.00
13734;BME280;43298;52.560;13.508;2023-01-26T02:29:07;101617.56;;;0.07;100.00
13734;BME280;43298;52.560;13.508;2023-01-26T02:31:34;101613.31;;;0.06;100.00
13734;BME280;43298;52.560;13.508;2023-01-26T02:34:01;101604.00;;;0.05;100.00
13734;BME280;43298;52.560;13.508;2023-01-26T02:36:29;101600.66;;;0.09;100.00
13734;BME280;43298;52.560;13.508;2023-01-26T02:39:31;101596.41;;;0.07;100.00
13734;BME280;43298;52.560;13.508;2023-01-26T02:42:00;101602.34;;;0.08;100.00
13734;BME280;43298;52.560;13.508;2023-01-26T02:44:45;101597.22;;;0.07;100.00
13734;BME280;43298;52.560;13.508;2023-01-26T02:47:17;101589.66;;;0.10;100.00
13734;BME280;43298;52.560;13.508;2023-01-26T02:49:44;101593.84;;;0.07;100.00
13734;BME280;43298;52.560;13.508;2023-01-26T02:52:20;101587.94;;;0.08;100.00
13734;BME280;43298;52.560;13.508;2023-01-26T02:54:47;101589.66;;;0.10;100.00
13734;BME280;43298;52.560;13.508;2023-01-26T02:57:31;101584.50;;;0.04;100.00
13734;BME280;43298;52.560;13.508;2023-01-26T03:00:00;101587.06;;;0.06;100.00
13734;BME280;43298;52.560;13.508;2023-01-26T03:02:26;101592.97;;;0.04;100.00
13734;BME280;43298;52.560;13.508;2023-01-26T03:04:52;101592.13;;;0.04;100.00
13734;BME280;43298;52.560;13.508;2023-01-26T03:07:18;101593.84;;;0.05;100.00
13734;BME280;43298;52.560;13.508;2023-01-26T03:09:44;101595.50;;;0.04;100.00
13734;BME280;43298;52.560;13.508;2023-01-26T03:12:09;101587.06;;;0.06;100.00
13734;BME280;43298;52.560;13.508;2023-01-26T03:14:35;101588.78;;;0.08;100.00
13734;BME280;43298;52.560;13.508;2023-01-26T03:17:01;101589.63;;;0.06;100.00
13734;BME280;43298;52.560;13.508;2023-01-26T03:19:27;101588.81;;;0.10;100.00
13734;BME280;43298;52.560;13.508;2023-01-26T03:22:11;101586.34;;;0.16;100.00
13734;BME280;43298;52.560;13.508;2023-01-26T03:24:56;101588.84;;;0.11;100.00
13734;BME280;43298;52.560;13.508;2023-01-26T03:27:46;101584.63;;;0.13;100.00
13734;BME280;43298;52.560;13.508;2023-01-26T03:30:16;101580.34;;;0.09;100.00
13734;BME280;43298;52.560;13.508;2023-01-26T03:32:42;101579.44;;;0.07;100.00
13734;BME280;43298;52.560;13.508;2023-01-26T03:35:09;101578.59;;;0.07;100.00
13734;BME280;43298;52.560;13.508;2023-01-26T03:37:42;101573.50;;;0.05;100.00
13734;BME280;43298;52.560;13.508;2023-01-26T03:40:10;101578.59;;;0.07;100.00
13734;BME280;43298;52.560;13.508;2023-01-26T03:42:55;101580.34;;;0.09;100.00
13734;BME280;43298;52.560;13.508;2023-01-26T03:45:40;101584.56;;;0.10;100.00
13734;BME280;43298;52.560;13.508;2023-01-26T03:48:25;101591.38;;;0.11;100.00
13734;BME280;43298;52.560;13.508;2023-01-26T03:51:09;101598.06;;;0.06;100.00
13734;BME280;43298;52.560;13.508;2023-01-26T03:53:54;101595.56;;;0.08;100.00
13734;BME280;43298;52.560;13.508;2023-01-26T03:56:38;101591.34;;;0.08;100.00
13734;BME280;43298;52.560;13.508;2023-01-26T03:59:06;101587.06;;;0.07;100.00
13734;BME280;43298;52.560;13.508;2023-01-26T04:01:40;101588.78;;;0.08;100.00
13734;BME280;43298;52.560;13.508;2023-01-26T04:04:07;101582.78;;;0.03;100.00
13734;BME280;43298;52.560;13.508;2023-01-26T04:06:53;101583.63;;;0.02;100.00
13734;BME280;43298;52.560;13.508;2023-01-26T04:09:38;101586.22;;;0.05;100.00
13734;BME280;43298;52.560;13.508;2023-01-26T04:12:07;101582.78;;;0.03;100.00
13734;BME280;43298;52.560;13.508;2023-01-26T04:14:34;101577.72;;;0.04;100.00
13734;BME280;43298;52.560;13.508;2023-01-26T04:17:19;101578.59;;;0.05;100.00
13734;BME280;43298;52.560;13.508;2023-01-26T04:20:05;101564.97;;;0.01;100.00
13734;BME280;43298;52.560;13.508;2023-01-26T04:22:49;101569.16;;;-0.02;100.00
13734;BME280;43298;52.560;13.508;2023-01-26T04:25:18;101562.38;;;-0.03;100.00
13734;BME280;43298;52.560;13.508;2023-01-26T04:27:45;101565.78;;;-0.01;100.00
13734;BME280;43298;52.560;13.508;2023-01-26T04:30:13;101558.09;;;-0.04;100.00
13734;BME280;43298;52.560;13.508;2023-01-26T04:32:41;101559.84;;;-0.02;100.00
13734;BME280;43298;52.560;13.508;2023-01-26T04:35:08;101558.09;;;-0.04;100.00
13734;BME280;43298;52.560;13.508;2023-01-26T04:37:36;101558.13;;;-0.03;100.00
13734;BME280;43298;52.560;13.508;2023-01-26T04:40:02;101553.00;;;-0.04;100.00
13734;BME280;43298;52.560;13.508;2023-01-26T04:42:29;101561.56;;;-0.01;100.00
13734;BME280;43298;52.560;13.508;2023-01-26T04:44:55;101560.66;;;-0.03;100.00
13734;BME280;43298;52.560;13.508;2023-01-26T04:47:21;101555.66;;;0.02;100.00
13734;BME280;43298;52.560;13.508;2023-01-26T04:49:47;101551.44;;;0.03;100.00
13734;BME280;43298;52.560;13.508;2023-01-26T04:52:13;101548.91;;;0.03;100.00
13734;BME280;43298;52.560;13.508;2023-01-26T04:54:39;101548.03;;;0.02;100.00
13734;BME280;43298;52.560;13.508;2023-01-26T04:57:06;101547.28;;;0.09;100.00
13734;BME280;43298;52.560;13.508;2023-01-26T04:59:32;101543.03;;;0.08;100.00
13734;BME280;43298;52.560;13.508;2023-01-26T05:01:58;101540.47;;;0.07;100.00
13734;BME280;43298;52.560;13.508;2023-01-26T05:04:24;101541.31;;;0.07;100.00
13734;BME280;43298;52.560;13.508;2023-01-26T05:06:50;101547.25;;;0.08;100.00
13734;BME280;43298;52.560;13.508;2023-01-26T05:09:16;101537.94;;;0.07;100.00
13734;BME280;43298;52.560;13.508;2023-01-26T05:11:42;101524.34;;;0.06;100.00
13734;BME280;43298;52.560;13.508;2023-01-26T05:14:07;101522.59;;;0.02;100.00
13734;BME280;43298;52.560;13.508;2023-01-26T05:16:33;101533.66;;;0.04;100.00
13734;BME280;43298;52.560;13.508;2023-01-26T05:18:59;101527.75;;;0.05;100.00
13734;BME280;43298;52.560;13.508;2023-01-26T05:21:25;101535.41;;;0.08;100.00
13734;BME280;43298;52.560;13.508;2023-01-26T05:23:53;101543.06;;;0.10;100.00
13734;BME280;43298;52.560;13.508;2023-01-26T05:26:19;101543.09;;;0.11;100.00
13734;BME280;43298;52.560;13.508;2023-01-26T05:28:45;101542.25;;;0.12;100.00
13734;BME280;43298;52.560;13.508;2023-01-26T05:31:10;101532.06;;;0.12;100.00
13734;BME280;43298;52.560;13.508;2023-01-26T05:33:36;101538.84;;;0.13;100.00
13734;BME280;43298;52.560;13.508;2023-01-26T05:36:05;101535.34;;;0.03;100.00
13734;BME280;43298;52.560;13.508;2023-01-26T05:38:32;101533.63;;;0.01;100.00
13734;BME280;43298;52.560;13.508;2023-01-26T05:40:58;101541.25;;;0.01;100.00
13734;BME280;43298;52.560;13.508;2023-01-26T05:43:24;101548.00;;;0.00;100.00
13734;BME280;43298;52.560;13.508;2023-01-26T05:45:50;101541.28;;;0.03;100.00
13734;BME280;43298;52.560;13.508;2023-01-26T05:48:16;101544.63;;;0.00;100.00
13734;BME280;43298;52.560;13.508;2023-01-26T05:50:42;101551.38;;;-0.01;100.00
13734;BME280;43298;52.560;13.508;2023-01-26T05:53:08;101550.47;;;-0.07;100.00
13734;BME280;43298;52.560;13.508;2023-01-26T05:55:34;101552.16;;;-0.06;100.00
13734;BME280;43298;52.560;13.508;2023-01-26T05:58:00;101547.06;;;-0.08;100.00
13734;BME280;43298;52.560;13.508;2023-01-26T06:00:26;101548.78;;;-0.05;100.00
13734;BME280;43298;52.560;13.508;2023-01-26T06:02:52;101547.94;;;-0.04;100.00
13734;BME280;43298;52.560;13.508;2023-01-26T06:05:18;101547.06;;;-0.06;100.00
13734;BME280;43298;52.560;13.508;2023-01-26T06:07:44;101545.38;;;-0.07;100.00
13734;BME280;43298;52.560;13.508;2023-01-26T06:10:10;101549.63;;;-0.06;100.00
13734;BME280;43298;52.560;13.508;2023-01-26T06:12:36;101552.22;;;-0.03;100.00
13734;BME280;43298;52.560;13.508;2023-01-26T06:15:04;101549.72;;;0.00;100.00
13734;BME280;43298;52.560;13.508;2023-01-26T06:17:30;101553.84;;;-0.05;100.00
13734;BME280;43298;52.560;13.508;2023-01-26T06:19:56;101556.38;;;-0.07;100.00
13734;BME280;43298;52.560;13.508;2023-01-26T06:22:23;101564.91;;;-0.05;100.00
13734;BME280;43298;52.560;13.508;2023-01-26T06:24:49;101559.81;;;-0.05;100.00
13734;BME280;43298;52.560;13.508;2023-01-26T06:27:16;101555.56;;;-0.04;100.00
13734;BME280;43298;52.560;13.508;2023-01-26T06:29:43;101551.31;;;-0.05;100.00
13734;BME280;43298;52.560;13.508;2023-01-26T06:32:11;101547.06;;;-0.06;100.00
13734;BME280;43298;52.560;13.508;2023-01-26T06:34:38;101555.56;;;-0.04;100.00
13734;BME280;43298;52.560;13.508;2023-01-26T06:37:04;101558.94;;;-0.05;100.00
13734;BME280;43298;52.560;13.508;2023-01-26T06:39:30;101557.28;;;-0.03;100.00
13734;BME280;43298;52.560;13.508;2023-01-26T06:41:55;101555.53;;;-0.06;100.00
13734;BME280;43298;52.560;13.508;2023-01-26T06:44:21;101560.69;;;-0.01;100.00
13734;BME280;43298;52.560;13.508;2023-01-26T06:46:47;101560.66;;;-0.03;100.00
13734;BME280;43298;52.560;13.508;2023-01-26T06:49:13;101564.97;;;0.01;100.00
13734;BME280;43298;52.560;13.508;2023-01-26T06:52:31;101568.31;;;-0.01;100.00
13734;BME280;43298;52.560;13.508;2023-01-26T06:54:58;101562.38;;;-0.03;100.00
13734;BME280;43298;52.560;13.508;2023-01-26T06:57:25;101565.72;;;-0.04;100.00
13734;BME280;43298;52.560;13.508;2023-01-26T06:59:51;101561.47;;;-0.05;100.00
13734;BME280;43298;52.560;13.508;2023-01-26T07:02:20;101563.22;;;-0.03;100.00
13734;BME280;43298;52.560;13.508;2023-01-26T07:04:47;101563.13;;;-0.10;100.00
13734;BME280;43298;52.560;13.508;2023-01-26T07:07:13;101561.44;;;-0.08;100.00
13734;BME280;43298;52.560;13.508;2023-01-26T07:09:39;101554.63;;;-0.11;100.00
13734;BME280;43298;52.560;13.508;2023-01-26T07:12:06;101560.56;;;-0.10;100.00
13734;BME280;43298;52.560;13.508;2023-01-26T07:14:32;101570.78;;;-0.06;100.00
13734;BME280;43298;52.560;13.508;2023-01-26T07:16:58;101580.19;;;-0.02;100.00
13734;BME280;43298;52.560;13.508;2023-01-26T07:19:23;101570.81;;;-0.04;100.00
13734;BME280;43298;52.560;13.508;2023-01-26T07:21:49;101575.03;;;-0.06;100.00
13734;BME280;43298;52.560;13.508;2023-01-26T07:24:15;101573.31;;;-0.06;100.00
13734;BME280;43298;52.560;13.508;2023-01-26T07:26:41;101571.56;;;-0.11;100.00
13734;BME280;43298;52.560;13.508;2023-01-26T07:29:06;101571.63;;;-0.07;100.00
13734;BME280;43298;52.560;13.508;2023-01-26T07:31:32;101570.69;;;-0.13;100.00
13734;BME280;43298;52.560;13.508;2023-01-26T07:33:58;101570.72;;;-0.12;100.00
13734;BME280;43298;52.560;13.508;2023-01-26T07:36:24;101570.69;;;-0.13;100.00
13734;BME280;43298;52.560;13.508;2023-01-26T07:38:50;101574.91;;;-0.14;100.00
13734;BME280;43298;52.560;13.508;2023-01-26T07:41:15;101579.16;;;-0.14;100.00
13734;BME280;43298;52.560;13.508;2023-01-26T07:43:41;101572.38;;;-0.12;100.00
13734;BME280;43298;52.560;13.508;2023-01-26T07:46:07;101565.59;;;-0.15;100.00
13734;BME280;43298;52.560;13.508;2023-01-26T07:48:35;101569.81;;;-0.15;100.00
13734;BME280;43298;52.560;13.508;2023-01-26T07:51:03;101578.22;;;-0.19;100.00
13734;BME280;43298;52.560;13.508;2023-01-26T07:53:30;101567.22;;;-0.18;100.00
13734;BME280;43298;52.560;13.508;2023-01-26T07:56:10;101575.72;;;-0.16;100.00
13734;BME280;43298;52.560;13.508;2023-01-26T07:58:36;101581.75;;;-0.10;100.00
13734;BME280;43298;52.560;13.508;2023-01-26T08:01:08;101581.69;;;-0.14;100.00
13734;BME280;43298;52.560;13.508;2023-01-26T08:03:35;101584.22;;;-0.16;100.00
13734;BME280;43298;52.560;13.508;2023-01-26T08:06:01;101576.59;;;-0.16;100.00
13734;BME280;43298;52.560;13.508;2023-01-26T08:08:27;101587.53;;;-0.21;100.00
13734;BME280;43298;52.560;13.508;2023-01-26T08:10:59;101588.41;;;-0.18;100.00
13734;BME280;43298;52.560;13.508;2023-01-26T08:13:28;101599.47;;;-0.16;100.00
13734;BME280;43298;52.560;13.508;2023-01-26T08:15:58;101593.34;;;-0.25;100.00
13734;BME280;43298;52.560;13.508;2023-01-26T08:18:24;101590.88;;;-0.22;100.00
13734;BME280;43298;52.560;13.508;2023-01-26T08:20:54;101592.59;;;-0.21;100.00
13734;BME280;43298;52.560;13.508;2023-01-26T08:23:20;101590.81;;;-0.25;100.00
13734;BME280;43298;52.560;13.508;2023-01-26T08:25:46;101593.38;;;-0.24;100.00
13734;BME280;43298;52.560;13.508;2023-01-26T08:28:12;101602.72;;;-0.24;100.00
13734;BME280;43298;52.560;13.508;2023-01-26T08:30:39;101600.16;;;-0.26;100.00
13734;BME280;43298;52.560;13.508;2023-01-26T08:33:05;101594.25;;;-0.23;100.00
13734;BME280;43298;52.560;13.508;2023-01-26T08:35:32;101590.78;;;-0.28;100.00
13734;BME280;43298;52.560;13.508;2023-01-26T08:37:58;101588.41;;;-0.18;100.00
13734;BME280;43298;52.560;13.508;2023-01-26T08:40:24;101598.56;;;-0.18;100.00
13734;BME280;43298;52.560;13.508;2023-01-26T08:42:51;101598.44;;;-0.25;100.00
13734;BME280;43298;52.560;13.508;2023-01-26T08:45:17;101594.97;;;-0.30;100.00
13734;BME280;43298;52.560;13.508;2023-01-26T08:47:43;101595.00;;;-0.29;100.00
13734;BME280;43298;52.560;13.508;2023-01-26T08:50:10;101595.88;;;-0.28;100.00
13734;BME280;43298;52.560;13.508;2023-01-26T08:52:36;101593.22;;;-0.34;100.00
13734;BME280;43298;52.560;13.508;2023-01-26T08:55:02;101599.97;;;-0.35;100.00
13734;BME280;43298;52.560;13.508;2023-01-26T08:57:29;101597.53;;;-0.30;100.00
13734;BME280;43298;52.560;13.508;2023-01-26T08:59:55;101602.56;;;-0.33;100.00
13734;BME280;43298;52.560;13.508;2023-01-26T09:02:21;101602.56;;;-0.33;100.00
13734;BME280;43298;52.560;13.508;2023-01-26T09:04:46;101607.59;;;-0.35;100.00
13734;BME280;43298;52.560;13.508;2023-01-26T09:07:12;101607.63;;;-0.33;100.00
13734;BME280;43298;52.560;13.508;2023-01-26T09:09:38;101605.03;;;-0.36;100.00
13734;BME280;43298;52.560;13.508;2023-01-26T09:12:04;101606.63;;;-0.43;100.00
13734;BME280;43298;52.560;13.508;2023-01-26T09:14:30;101605.78;;;-0.42;100.00
13734;BME280;43298;52.560;13.508;2023-01-26T09:16:56;101610.09;;;-0.39;100.00
13734;BME280;43298;52.560;13.508;2023-01-26T09:19:22;101613.47;;;-0.39;100.00
13734;BME280;43298;52.560;13.508;2023-01-26T09:21:54;101614.31;;;-0.40;100.00
13734;BME280;43298;52.560;13.508;2023-01-26T09:24:21;101623.63;;;-0.39;100.00
13734;BME280;43298;52.560;13.508;2023-01-26T09:26:46;101631.28;;;-0.37;100.00
13734;BME280;43298;52.560;13.508;2023-01-26T09:29:12;101628.88;;;-0.30;100.00
13734;BME280;43298;52.560;13.508;2023-01-26T09:31:41;101622.78;;;-0.38;100.00
13734;BME280;43298;52.560;13.508;2023-01-26T09:34:08;101616.09;;;-0.34;100.00
13734;BME280;43298;52.560;13.508;2023-01-26T09:36:33;101613.66;;;-0.28;100.00
13734;BME280;43298;52.560;13.508;2023-01-26T09:38:59;101613.53;;;-0.36;100.00
13734;BME280;43298;52.560;13.508;2023-01-26T09:42:17;101623.63;;;-0.39;100.00
13734;BME280;43298;52.560;13.508;2023-01-26T09:48:05;101612.75;;;-0.32;100.00
13734;BME280;43298;52.560;13.508;2023-01-26T09:50:50;101613.50;;;-0.37;100.00
13734;BME280;43298;52.560;13.508;2023-01-26T09:55:54;101622.00;;;-0.35;100.00
13734;BME280;43298;52.560;13.508;2023-01-26T09:58:39;101619.41;;;-0.38;100.00
13734;BME280;43298;52.560;13.508;2023-01-26T10:01:26;101623.72;;;-0.34;100.00
13734;BME280;43298;52.560;13.508;2023-01-26T10:06:52;101612.72;;;-0.33;100.00
13734;BME280;43298;52.560;13.508;2023-01-26T10:09:27;101610.09;;;-0.39;100.00
13734;BME280;43298;52.560;13.508;2023-01-26T10:12:05;101604.97;;;-0.42;100.00
13734;BME280;43298;52.560;13.508;2023-01-26T10:14:37;101602.50;;;-0.36;100.00
13734;BME280;43298;52.560;13.508;2023-01-26T10:17:12;101604.19;;;-0.37;100.00
13734;BME280;43298;52.560;13.508;2023-01-26T10:19:44;101597.41;;;-0.36;100.00
13734;BME280;43298;52.560;13.508;2023-01-26T10:24:58;101597.41;;;-0.36;100.00
13734;BME280;43298;52.560;13.508;2023-01-26T10:27:27;101599.97;;;-0.35;100.00
13734;BME280;43298;52.560;13.508;2023-01-26T10:29:54;101593.22;;;-0.34;100.00
13734;BME280;43298;52.560;13.508;2023-01-26T10:32:19;101585.56;;;-0.36;100.00
13734;BME280;43298;52.560;13.508;2023-01-26T10:34:47;101572.84;;;-0.37;100.00
13734;BME280;43298;52.560;13.508;2023-01-26T10:37:27;101570.31;;;-0.37;100.00
13734;BME280;43298;52.560;13.508;2023-01-26T10:40:03;101568.56;;;-0.41;100.00
13734;BME280;43298;52.560;13.508;2023-01-26T10:42:32;101567.81;;;-0.34;100.00
13734;BME280;43298;52.560;13.508;2023-01-26T10:44:59;101557.72;;;-0.31;100.00
13734;BME280;43298;52.560;13.508;2023-01-26T10:47:28;101544.97;;;-0.34;100.00
13734;BME280;43298;52.560;13.508;2023-01-26T10:50:27;101544.13;;;-0.33;100.00
13734;BME280;43298;52.560;13.508;2023-01-26T10:53:01;101544.13;;;-0.33;100.00
13734;BME280;43298;52.560;13.508;2023-01-26T10:55:29;101550.84;;;-0.37;100.00
13734;BME280;43298;52.560;13.508;2023-01-26T10:57:55;101535.69;;;-0.32;100.00
13734;BME280;43298;52.560;13.508;2023-01-26T11:05:32;101533.06;;;-0.37;100.00
13734;BME280;43298;52.560;13.508;2023-01-26T11:07:58;101537.41;;;-0.30;100.00
13734;BME280;43298;52.560;13.508;2023-01-26T11:10:38;101537.47;;;-0.24;100.00
13734;BME280;43298;52.560;13.508;2023-01-26T11:13:14;101534.97;;;-0.22;100.00
13734;BME280;43298;52.560;13.508;2023-01-26T11:21:52;101529.84;;;-0.25;100.00
13734;BME280;43298;52.560;13.508;2023-01-26T11:24:24;101518.03;;;-0.23;100.00
13734;BME280;43298;52.560;13.508;2023-01-26T11:33:32;101516.50;;;-0.11;100.00
13734;BME280;43298;52.560;13.508;2023-01-26T11:39:45;101508.00;;;-0.14;100.00
13734;BME280;43298;52.560;13.508;2023-01-26T11:42:24;101499.53;;;-0.13;100.00
13734;BME280;43298;52.560;13.508;2023-01-26T11:45:19;101507.25;;;-0.07;100.00
13734;BME280;43298;52.560;13.508;2023-01-26T11:48:18;101497.84;;;-0.14;100.00
13734;BME280;43298;52.560;13.508;2023-01-26T11:59:52;101475.66;;;-0.24;100.00
13734;BME280;43298;52.560;13.508;2023-01-26T12:02:31;101474.91;;;-0.19;100.00
13734;BME280;43298;52.560;13.508;2023-01-26T12:05:19;101469.81;;;-0.19;100.00
13734;BME280;43298;52.560;13.508;2023-01-26T12:10:34;101459.88;;;-0.02;100.00
13734;BME280;43298;52.560;13.508;2023-01-26T12:15:53;101466.78;;;0.08;100.00
13734;BME280;43298;52.560;13.508;2023-01-26T12:18:58;101447.28;;;0.10;100.00
13734;BME280;43298;52.560;13.508;2023-01-26T12:21:30;101437.13;;;0.10;100.00
13734;BME280;43298;52.560;13.508;2023-01-26T12:24:02;101436.31;;;0.11;100.00
13734;BME280;43298;52.560;13.508;2023-01-26T12:26:38;101435.41;;;0.08;100.00
13734;BME280;43298;52.560;13.508;2023-01-26T12:29:29;101431.06;;;0.00;100.00
13734;BME280;43298;52.560;13.508;2023-01-26T12:32:04;101420.13;;;0.06;100.00
13734;BME280;43298;52.560;13.508;2023-01-26T12:34:34;101422.59;;;-0.02;100.00
13734;BME280;43298;52.560;13.508;2023-01-26T12:37:42;101426.00;;;0.00;100.00
13734;BME280;43298;52.560;13.508;2023-01-26T12:40:34;101416.66;;;-0.02;100.00
13734;BME280;43298;52.560;13.508;2023-01-26T12:45:46;101408.28;;;0.07;100.00
13734;BME280;43298;52.560;13.508;2023-01-26T12:48:20;101406.63;;;0.10;100.00
13734;BME280;43298;52.560;13.508;2023-01-26T12:51:03;101409.91;;;0.03;100.00
13734;BME280;43298;52.560;13.508;2023-01-26T12:56:24;101404.97;;;0.14;100.00
13734;BME280;43298;52.560;13.508;2023-01-26T12:58:55;101400.75;;;0.13;100.00
13734;BME280;43298;52.560;13.508;2023-01-26T13:01:24;101413.38;;;0.08;100.00
13734;BME280;43298;52.560;13.508;2023-01-26T13:04:00;101412.50;;;0.04;100.00
13734;BME280;43298;52.560;13.508;2023-01-26T13:06:29;101411.63;;;0.01;100.00
13734;BME280;43298;52.560;13.508;2023-01-26T13:11:58;101410.81;;;0.05;100.00
13734;BME280;43298;52.560;13.508;2023-01-26T13:24:56;101421.00;;;0.07;100.00
13734;BME280;43298;52.560;13.508;2023-01-26T13:33:17;101417.47;;;-0.05;100.00
13734;BME280;43298;52.560;13.508;2023-01-26T13:35:46;101419.16;;;-0.05;100.00
13734;BME280;43298;52.560;13.508;2023-01-26T13:38:43;101426.69;;;-0.11;100.00
13734;BME280;43298;52.560;13.508;2023-01-26T13:41:19;101436.91;;;-0.08;100.00
13734;BME280;43298;52.560;13.508;2023-01-26T13:44:07;101434.41;;;-0.05;100.00
13734;BME280;43298;52.560;13.508;2023-01-26T13:46:51;101441.13;;;-0.10;100.00
13734;BME280;43298;52.560;13.508;2023-01-26T13:49:39;101438.63;;;-0.06;100.00
13734;BME280;43298;52.560;13.508;2023-01-26T13:52:20;101438.66;;;-0.03;100.00
13734;BME280;43298;52.560;13.508;2023-01-26T13:54:49;101433.66;;;0.02;100.00
13734;BME280;43298;52.560;13.508;2023-01-26T13:57:27;101441.19;;;-0.04;100.00
13734;BME280;43298;52.560;13.508;2023-01-26T13:59:56;101436.84;;;-0.14;100.00
13734;BME280;43298;52.560;13.508;2023-01-26T14:02:34;101441.94;;;-0.11;100.00
13734;BME280;43298;52.560;13.508;2023-01-26T14:05:03;101440.25;;;-0.12;100.00
13734;BME280;43298;52.560;13.508;2023-01-26T14:07:41;101441.16;;;-0.09;100.00
13734;BME280;43298;52.560;13.508;2023-01-26T14:10:17;101430.13;;;-0.09;100.00
13734;BME280;43298;52.560;13.508;2023-01-26T14:12:52;101432.75;;;-0.03;100.00